Latest Weather Observations for Wangaratta

IDV60801

Issued at 7:42 pm EST Wednesday 19 September 2018 (issued every 10 minutes, with the page automatically refreshed every 10 minutes)

About weather observations | Map of weather stations | Latest weather observations for VIC | Other Formats
Station Details ID: 082138 Name: WANGARATTA AERO Lat: -36.42 Lon: 146.31 Height: 152.6 m
Data from the previous 72 hours. | See also: Recent months at Wangaratta
Date/Time
EST
Temp
°C
App
Temp
°C
Dew
Point
°C
Rel
Hum
%
Delta-T
°C
Wind Press
QNH
hPa
Press
MSL
hPa
Rain since
9am
mm
Dir  Spd
km/h
Gust
km/h
Spd
kts
Gust
kts
19/07:30pm 9.1 6.3 1.8 60 3.1 SW 6 7 3 4 1016.2 1016.3 0.0
19/07:00pm 10.3 7.3 2.2 57 3.5 SSE 7 11 4 6 1015.9 1016.0 0.0
19/06:30pm 10.9 7.3 0.9 50 4.2 W 9 11 5 6 1015.3 1015.4 0.0
19/06:00pm 10.4 6.6 1.5 54 3.7 WSW 11 13 6 7 1015.1 1015.2 0.0
19/05:30pm 12.6 8.1 2.2 49 4.5 WSW 15 24 8 13 1014.8 1014.9 0.0
19/05:00pm 13.6 8.6 1.6 44 5.2 WSW 17 24 9 13 1014.5 1014.6 0.0
19/04:30pm 13.8 8.1 0.8 41 5.6 WSW 20 26 11 14 1014.3 1014.4 0.0
19/04:00pm 14.2 8.7 1.8 43 5.4 SW 20 33 11 18 1014.3 1014.4 0.0
19/03:30pm 14.4 9.2 2.6 45 5.3 SW 19 24 10 13 1014.0 1014.1 0.0
19/03:00pm 13.1 7.5 1.1 44 5.1 WSW 20 30 11 16 1014.0 1014.1 0.0
19/02:30pm 14.0 8.3 2.9 47 5.0 WSW 22 33 12 18 1014.0 1014.1 0.0
19/02:00pm 14.6 9.2 2.2 43 5.5 W 20 30 11 16 1014.0 1014.1 0.0
19/01:30pm 12.7 7.2 2.0 48 4.7 WSW 20 28 11 15 1014.0 1014.1 0.0
19/01:00pm 13.7 8.5 2.6 47 4.9 W 19 32 10 17 1013.9 1014.0 0.0
19/12:30pm 13.3 8.5 2.5 48 4.8 WSW 17 30 9 16 1014.0 1014.1 0.0
19/12:00pm 12.6 7.9 3.0 52 4.3 W 17 32 9 17 1013.9 1014.0 0.0
19/11:30am 12.2 7.2 3.4 55 3.9 WSW 19 30 10 16 1014.1 1014.2 0.0
19/11:00am 11.1 6.5 3.9 61 3.2 WSW 17 26 9 14 1014.2 1014.3 0.0
19/10:30am 10.4 6.3 4.5 67 2.7 WSW 15 24 8 13 1014.3 1014.4 0.0
19/10:00am 10.4 6.4 5.0 69 2.5 W 15 24 8 13 1014.2 1014.3 0.0
19/09:30am 9.6 4.9 5.2 74 2.0 WSW 19 24 10 13 1013.8 1013.9 0.0
19/09:00am 9.8 5.0 4.8 71 2.3 WNW 19 26 10 14 1013.6 1013.7 0.0
19/08:30am 10.1 6.0 6.3 77 1.8 WNW 17 24 9 13 1013.4 1013.5 0.0
19/08:00am 9.6 6.2 6.1 79 1.6 NW 13 17 7 9 1013.2 1013.3 0.0
19/07:30am 9.6 7.4 6.0 78 1.7 NW 7 11 4 6 1012.9 1013.0 0.0
19/07:00am 7.9 5.4 5.0 82 1.3 NNW 7 9 4 5 1012.6 1012.7 0.0
19/06:30am 8.4 5.6 5.2 80 1.4 NNW 9 13 5 7 1012.2 1012.3 0.0
19/06:00am 8.3 5.6 5.4 82 1.3 NW 9 13 5 7 1012.0 1012.0 0.0
19/05:30am 8.2 5.5 5.7 84 1.1 NW 9 13 5 7 1011.4 1011.5 0.0
19/05:00am 9.1 5.4 6.4 83 1.3 WNW 15 20 8 11 1011.1 1011.2 0.0
19/04:30am 9.4 5.2 5.8 78 1.7 WNW 17 22 9 12 1010.7 1010.8 0.0
19/04:00am 10.2 6.5 6.5 78 1.7 WNW 15 22 8 12 1010.5 1010.6 0.0
19/03:30am 10.0 6.8 6.9 81 1.5 W 13 17 7 9 1010.1 1010.2 0.0
19/03:00am 9.9 6.4 7.0 82 1.4 WNW 15 17 8 9 1009.9 1010.0 0.0
19/02:30am 10.5 6.9 6.8 78 1.8 W 15 19 8 10 1010.3 1010.4 0.0
19/02:00am 9.8 6.6 6.9 82 1.4 W 13 17 7 9 1010.0 1010.1 0.0
19/01:30am 10.5 7.7 7.0 79 1.7 NW 11 13 6 7 1010.2 1010.3 0.0
19/01:00am 11.4 8.6 7.1 75 2.1 ENE 11 13 6 7 1010.4 1010.5 0.0
19/12:30am 11.8 9.8 6.3 69 2.6 SSW 6 13 3 7 1010.7 1010.8 0.0
19/12:00am 12.0 8.8 6.7 70 2.5 E 13 22 7 12 1011.8 1011.8 0.0
 
Date/Time
EST
Temp
°C
App
Temp
°C
Dew
Point
°C
Rel
Hum
%
Delta-T
°C
Wind Press
QNH
hPa
Press
MSL
hPa
Rain since
9am
mm
Dir  Spd
km/h
Gust
km/h
Spd
kts
Gust
kts
18/11:30pm 11.9 8.8 7.2 73 2.3 SE 13 19 7 10 1011.1 1011.2 0.0
18/11:00pm 12.0 7.9 7.7 75 2.1 SW 19 30 10 16 1011.4 1011.5 0.0
18/10:30pm 13.0 6.7 7.2 68 2.8 WSW 30 41 16 22 1012.1 1012.1 0.0
18/10:00pm 14.4 6.7 5.5 55 4.2 W 35 52 19 28 1011.7 1011.7 0.0
18/09:37pm 15.9 10.5 1.2 37 6.5 W 19 43 10 23 1011.0 1011.1 0.0
18/09:30pm 16.1 12.3 -1.0 31 7.2 NW 9 13 5 7 1011.0 1011.1 0.0
18/09:00pm 16.0 12.2 -1.1 31 7.2 WNW 9 13 5 7 1010.6 1010.7 0.0
18/08:30pm 16.6 10.7 -2.0 28 7.7 WSW 19 26 10 14 1010.4 1010.5 0.0
18/08:00pm 17.6 12.4 -2.6 25 8.4 W 15 20 8 11 1010.3 1010.4 0.0
18/07:30pm 13.3 10.1 5.2 58 3.8 WNW 11 19 6 10 1010.8 1010.9 0.0
18/07:00pm 14.3 12.7 6.4 59 3.8 NE 4 9 2 5 1010.4 1010.5 0.0
18/06:30pm 13.4 12.8 7.6 68 2.9 CALM 0 7 0 4 1010.3 1010.4 0.0
18/06:00pm 15.8 13.6 5.1 49 5.1 ENE 6 7 3 4 1010.3 1010.4 0.0
18/05:30pm 16.4 14.2 6.0 50 5.1 SE 7 9 4 5 1009.9 1010.0 0.0
18/05:00pm 17.3 15.7 6.5 49 5.4 NE 4 7 2 4 1010.2 1010.3 0.0
18/04:30pm 19.0 15.5 1.5 31 8.0 N 9 11 5 6 1010.2 1010.3 0.0
18/04:00pm 19.5 15.4 -0.5 26 8.8 N 11 15 6 8 1010.5 1010.6 0.0
18/03:30pm 20.0 14.3 -3.6 20 9.8 NNW 17 22 9 12 1010.6 1010.7 0.0
18/03:00pm 20.2 14.4 -4.8 18 10.1 N 17 24 9 13 1010.8 1010.9 0.0
18/02:30pm 20.1 13.3 -4.9 18 10.1 NNW 22 32 12 17 1011.2 1011.3 0.0
18/02:00pm 20.3 13.1 -5.5 17 10.3 N 24 33 13 18 1011.1 1011.2 0.0
18/01:30pm 20.5 13.6 -6.1 16 10.5 NNW 22 33 12 18 1011.5 1011.6 0.0
18/01:00pm 20.4 13.0 -4.0 19 10.1 N 26 35 14 19 1012.1 1012.1 0.0
18/12:30pm 19.7 13.6 0.2 27 8.7 NNE 22 32 12 17 1013.1 1013.2 0.0
18/12:00pm 18.5 13.2 2.8 35 7.3 NNE 20 30 11 16 1013.7 1013.8 0.0
18/11:30am 17.6 12.1 1.6 34 7.2 N 20 26 11 14 1014.5 1014.6 0.0
18/11:00am 16.9 11.6 2.1 37 6.7 N 19 24 10 13 1015.1 1015.2 0.0
18/10:30am 16.0 11.5 2.4 40 6.1 N 15 20 8 11 1015.6 1015.7 0.0
18/10:00am 15.2 10.7 2.1 41 5.8 N 15 20 8 11 1016.1 1016.2 0.0
18/09:30am 14.0 9.5 2.3 45 5.2 N 15 22 8 12 1016.3 1016.4 0.0
18/09:00am 11.8 8.7 3.6 57 3.7 N 9 13 5 7 1016.5 1016.6 0.0
18/08:30am 8.6 6.9 4.2 74 1.9 SSW 2 6 1 3 1016.5 1016.6 0.0
18/08:00am 6.5 4.1 4.5 87 0.9 S 6 7 3 4 1016.4 1016.5 0.0
18/07:30am 3.1 1.6 3.0 99 0.0 CALM 0 0 0 0 1016.5 1016.6 0.0
18/07:00am 0.3 -1.7 0.2 99 0.0 CALM 0 0 0 0 1016.4 1016.5 0.0
18/06:53am 0.4 -1.5 0.3 99 0.0 CALM 0 0 0 0 1016.3 1016.4 0.0
18/06:47am 0.7 -1.2 0.6 99 0.0 CALM 0 0 0 0 1016.5 1016.6 0.0
18/06:34am 0.3 -1.7 0.2 99 0.0 CALM 0 6 0 3 1016.5 1016.6 0.0
18/06:30am 0.1 -2.3 0.0 99 0.0 SSW 2 6 1 3 1016.6 1016.7 0.0
18/06:12am -0.6 -3.4 -0.7 99 0.0 SW 4 7 2 4 1016.7 1016.8 0.0
18/06:02am -0.8 -2.9 -0.9 99 0.0 CALM 0 0 0 0 1016.7 1016.8 0.0
18/06:00am 0.0 -2.0 -0.1 99 0.0 CALM 0 0 0 0 1016.7 1016.8 0.0
18/05:56am 0.6 -1.3 0.5 99 0.0 CALM 0 0 0 0 1016.7 1016.8 0.0
18/05:55am 0.5 -1.4 0.4 99 0.0 CALM 0 0 0 0 1016.7 1016.8 0.0
18/05:37am 0.2 -1.8 0.1 99 0.0 CALM 0 0 0 0 1016.8 1016.9 0.0
18/05:30am 0.2 -1.8 0.1 99 0.0 CALM 0 0 0 0 1016.7 1016.8 0.0
18/05:00am 0.2 -1.8 0.1 99 0.0 CALM 0 0 0 0 1016.7 1016.8 0.0
18/04:53am -0.2 -2.2 -0.3 99 0.0 CALM 0 0 0 0 1016.7 1016.8 0.0
18/04:30am 1.1 -0.7 1.0 99 0.0 CALM 0 0 0 0 1016.6 1016.7 0.0
18/04:00am 1.0 -0.8 0.9 99 0.0 CALM 0 0 0 0 1016.5 1016.6 0.0
18/03:55am 1.5 -0.3 1.4 99 0.0 CALM 0 0 0 0 1016.6 1016.7 0.0
18/03:30am 1.6 -1.3 1.5 99 0.0 SW 6 7 3 4 1016.7 1016.8 0.0
18/03:00am 1.4 -1.6 1.1 98 0.1 SW 6 7 3 4 1016.8 1016.9 0.0
18/02:30am 2.2 -0.7 1.6 96 0.2 SSW 6 7 3 4 1017.0 1017.1 0.0
18/02:00am 2.4 -0.4 1.8 96 0.2 SW 6 7 3 4 1017.2 1017.3 0.0
18/01:30am 3.1 0.3 2.2 94 0.4 S 6 7 3 4 1017.5 1017.6 0.0
18/01:00am 3.4 0.6 2.2 92 0.5 SSE 6 7 3 4 1017.7 1017.9 0.0
18/12:30am 3.9 1.0 2.6 91 0.5 SSE 7 9 4 5 1017.9 1018.1 0.0
18/12:00am 3.3 0.7 1.0 85 0.9 S 4 6 2 3 1018.0 1018.2 0.0
 
Date/Time
EST
Temp
°C
App
Temp
°C
Dew
Point
°C
Rel
Hum
%
Delta-T
°C
Wind Press
QNH
hPa
Press
MSL
hPa
Rain since
9am
mm
Dir  Spd
km/h
Gust
km/h
Spd
kts
Gust
kts
17/11:30pm 4.2 1.2 2.2 87 0.8 SSW 7 9 4 5 1018.5 1018.6 0.0
17/11:00pm 5.1 2.4 2.8 85 0.9 S 6 9 3 5 1018.5 1018.6 0.0
17/10:30pm 5.4 3.9 2.9 84 1.0 CALM 0 0 0 0 1018.8 1018.9 0.0
17/10:00pm 5.4 3.9 2.8 83 1.1 CALM 0 0 0 0 1019.2 1019.3 0.0
17/09:30pm 5.7 3.8 3.0 83 1.1 S 2 6 1 3 1019.5 1019.6 0.0
17/09:00pm 5.5 2.8 2.5 81 1.2 SW 6 7 3 4 1019.5 1019.6 0.0
17/08:30pm 4.9 1.9 1.9 81 1.2 SW 7 9 4 5 1019.4 1019.5 0.0
17/08:00pm 6.1 3.4 2.9 80 1.3 WSW 6 7 3 4 1019.4 1019.5 0.0
17/07:30pm 7.3 5.7 2.4 71 2.0 CALM 0 6 0 3 1019.4 1019.5 0.0
17/07:00pm 9.7 6.7 1.8 58 3.3 ENE 7 11 4 6 1019.4 1019.5 0.0
17/06:30pm 11.0 8.0 1.8 53 3.9 ENE 7 9 4 5 1019.3 1019.4 0.0
17/06:00pm 12.0 8.7 2.2 51 4.2 NE 9 11 5 6 1019.0 1019.1 0.0
17/05:30pm 14.1 10.2 1.4 42 5.5 NE 11 15 6 8 1019.0 1019.1 0.0
17/05:00pm 15.0 11.4 0.8 38 6.1 NNE 9 15 5 8 1019.0 1019.1 0.0
17/04:30pm 15.7 11.0 1.1 37 6.4 NE 15 20 8 11 1019.1 1019.2 0.0
17/04:00pm 15.7 10.4 -0.5 33 6.8 N 17 22 9 12 1019.2 1019.3 0.0
17/03:30pm 15.6 11.3 1.0 37 6.4 N 13 20 7 11 1019.5 1019.6 0.0
17/03:00pm 15.1 10.7 0.2 36 6.4 NNE 13 20 7 11 1020.0 1020.1 0.0
17/02:30pm 14.6 9.9 0.8 39 6.0 NNE 15 20 8 11 1020.5 1020.6 0.0
17/02:00pm 14.7 10.3 0.2 37 6.2 NNE 13 24 7 13 1020.9 1021.0 0.0
17/01:30pm 14.7 10.4 1.3 40 5.9 N 13 20 7 11 1021.3 1021.4 0.0
17/01:00pm 14.4 9.8 1.3 41 5.7 NNE 15 32 8 17 1021.9 1022.0 0.0
17/12:30pm 14.0 8.9 1.0 41 5.6 NNW 17 24 9 13 1022.5 1022.6 0.0
17/12:00pm 13.4 8.8 1.4 44 5.2 N 15 20 8 11 1022.9 1023.0 0.0
17/11:30am 12.8 9.0 1.8 47 4.8 N 11 17 6 9 1023.4 1023.6 0.0
17/11:00am 12.2 8.5 2.6 52 4.2 N 11 17 6 9 1023.8 1024.0 0.0
17/10:30am 10.9 7.7 3.0 58 3.5 NNE 9 13 5 7 1024.2 1024.4 0.0
17/10:00am 9.6 6.8 3.1 64 2.8 N 7 11 4 6 1024.5 1024.7 0.0
17/09:30am 8.5 5.8 2.9 68 2.4 NE 6 9 3 5 1024.8 1025.0 0.0
17/09:00am 6.9 4.3 3.3 78 1.5 SE 6 9 3 5 1025.0 1025.2 0.0
17/08:30am 4.9 3.0 2.8 86 0.9 ESE 2 6 1 3 1025.1 1025.3 0.0
17/08:00am 3.2 1.7 3.1 99 0.0 CALM 0 0 0 0 1025.0 1025.2 0.0
17/07:30am 0.8 -1.1 0.7 99 0.0 CALM 0 0 0 0 1025.0 1025.2 0.0
17/07:20am 0.4 -1.5 0.3 99 0.0 CALM 0 0 0 0 1024.8 1025.0 0.0
17/07:07am -1.4 -3.6 -1.5 99 0.0 CALM 0 0 0 0 1024.8 1025.0 0.0
17/07:04am -1.6 -3.8 -1.7 99 0.0 CALM 0 0 0 0 1024.8 1025.0 0.0
17/07:00am -1.8 -4.0 -1.9 99 0.0 CALM 0 0 0 0 1024.7 1024.9 0.0
17/06:41am -2.2 -4.5 -2.3 99 -0.1 CALM 0 0 0 0 1024.5 1024.7 0.0
17/06:30am -2.2 -4.5 -2.3 99 -0.1 CALM 0 0 0 0 1024.4 1024.6 0.0
17/06:26am -1.9 -4.2 -2.0 99 -0.1 CALM 0 0 0 0 1024.3 1024.5 0.0
17/06:00am -1.7 -3.9 -1.8 99 0.0 CALM 0 0 0 0 1024.1 1024.3 0.0
17/05:30am -1.6 -3.8 -1.7 99 0.0 CALM 0 0 0 0 1023.9 1024.1 0.0
17/05:10am -1.4 -3.6 -1.5 99 0.0 CALM 0 0 0 0 1023.7 1023.9 0.0
17/05:00am -1.4 -3.6 -1.5 99 0.0 CALM 0 0 0 0 1023.6 1023.8 0.0
17/04:30am -1.0 -3.1 -1.1 99 0.0 CALM 0 0 0 0 1023.3 1023.5 0.0
17/04:00am -0.2 -2.2 -0.3 99 0.0 CALM 0 0 0 0 1023.3 1023.5 0.0
17/03:59am -0.2 -2.2 -0.3 99 0.0 CALM 0 0 0 0 1023.3 1023.5 0.0
17/03:30am -0.5 -2.6 -0.6 99 0.0 CALM 0 0 0 0 1023.1 1023.2 0.0
17/03:01am -0.6 -2.7 -0.7 99 0.0 CALM 0 0 0 0 1023.1 1023.2 0.0
17/03:00am -0.6 -2.7 -0.7 99 0.0 CALM 0 0 0 0 1023.1 1023.2 0.0
17/02:43am -0.2 -2.2 -0.3 99 0.0 CALM 0 0 0 0 1023.1 1023.2 0.0
17/02:30am -0.8 -2.9 -0.9 99 0.0 CALM 0 0 0 0 1023.3 1023.5 0.0
17/02:27am -0.7 -2.8 -0.8 99 0.0 CALM 0 0 0 0 1023.3 1023.5 0.0
17/02:20am -0.4 -2.5 -0.5 99 0.0 CALM 0 0 0 0 1023.3 1023.5 0.0
17/02:16am -0.2 -2.2 -0.3 99 0.0 CALM 0 0 0 0 1023.3 1023.5 0.0
17/02:08am 0.3 -1.7 0.2 99 0.0 CALM 0 0 0 0 1023.3 1023.5 0.0
17/02:00am 0.6 -1.3 0.5 99 0.0 CALM 0 4 0 2 1023.4 1023.6 0.0
17/01:46am 0.4 -2.7 0.3 99 0.0 SSW 6 7 3 4 1023.5 1023.7 0.0
17/01:30am 0.1 -1.9 0.0 99 0.0 CALM 0 0 0 0 1023.6 1023.8 0.0
17/01:00am 0.2 -3.1 0.1 99 0.0 SSW 7 11 4 6 1023.7 1023.9 0.0
17/12:30am 1.3 -0.5 1.0 98 0.1 CALM 0 0 0 0 1023.7 1023.9 0.0
17/12:00am 1.4 -1.7 1.1 98 0.1 SSE 7 9 4 5 1023.8 1024.0 0.0
 
Date/Time
EST
Temp
°C
App
Temp
°C
Dew
Point
°C
Rel
Hum
%
Delta-T
°C
Wind Press
QNH
hPa
Press
MSL
hPa
Rain since
9am
mm
Dir  Spd
km/h
Gust
km/h
Spd
kts
Gust
kts
16/11:30pm 2.3 -0.5 2.0 98 0.1 SSW 6 7 3 4 1023.8 1024.0 0.0
16/11:00pm 1.3 -1.9 0.6 95 0.3 SW 7 9 4 5 1023.9 1024.1 0.0
16/10:30pm 2.1 -1.4 1.2 94 0.3 SSW 9 13 5 7 1024.0 1024.2 0.0
16/10:00pm 3.1 0.2 1.5 89 0.6 SE 6 6 3 3 1023.9 1024.1 0.0
16/09:30pm 3.7 0.7 1.7 87 0.8 ESE 7 9 4 5 1024.0 1024.2 0.0
16/09:00pm 5.6 4.1 2.9 83 1.1 CALM 0 0 0 0 1023.9 1024.1 0.0
16/08:30pm 6.4 4.8 2.7 77 1.5 CALM 0 0 0 0 1023.7 1023.9 0.0
16/08:00pm 7.6 6.2 3.3 74 1.8 CALM 0 0 0 0 1023.4 1023.6 0.0

Other Formats:

Comma delimited format used in spreadsheet applications
http://www.bom.gov.au/fwo/IDV60801/IDV60801.94889.axf

JavaScript Object Notation format (JSON) in row-major order
http://www.bom.gov.au/fwo/IDV60801/IDV60801.94889.json